Time;durP1;ratioP1;P1;durP2;ratioP2;P2;SDS_P1;SDS_P2;PMS_P1;PMS_P2;Temp;Humidity;BMP_temperature;BMP_pressure;BME280_temperature;BME280_humidity;BME280_pressure;Samples;Min_cycle;Max_cycle;Signal;HPM_P1;HPM_P2
2023/07/10 00:01:05;;;;;;;14.02;9.57;;;23.20;91.90;;;24.20;67.20;100859.13;4935113;29;20122;-83
2023/07/10 00:03:33;;;;;;;14.75;9.70;;;23.20;92.10;;;24.21;67.27;100852.59;4933777;29;20095;-83
2023/07/10 00:06:01;;;;;;;14.35;9.77;;;23.20;92.00;;;24.20;66.90;100849.03;4932520;29;20520;-83
2023/07/10 00:08:29;;;;;;;14.25;9.88;;;23.20;91.80;;;24.21;67.00;100858.03;4936254;29;20131;-83
2023/07/10 00:10:57;;;;;;;14.40;10.68;;;23.20;91.70;;;24.19;66.83;100849.31;4935966;29;20122;-83
2023/07/10 00:13:26;;;;;;;15.48;10.30;;;23.20;91.60;;;24.18;66.81;100855.88;4935791;29;20074;-83
2023/07/10 00:15:56;;;;;;;14.88;10.05;;;23.20;91.60;;;24.18;66.85;100847.72;4919044;29;20575;-83
2023/07/10 00:18:24;;;;;;;11.60;9.13;;;23.20;91.60;;;24.18;66.35;100858.63;4929324;29;20059;-83
2023/07/10 00:20:52;;;;;;;13.93;9.68;;;23.10;91.30;;;24.17;66.78;100855.09;4922664;29;20614;-83
2023/07/10 00:23:20;;;;;;;14.10;9.95;;;23.20;91.50;;;24.18;66.74;100856.69;4935105;29;20043;-83
2023/07/10 00:25:48;;;;;;;12.35;8.98;;;23.20;91.70;;;24.18;66.67;100862.16;4935320;29;20044;-83
2023/07/10 00:28:18;;;;;;;17.13;9.82;;;23.20;91.40;;;24.18;66.62;100858.63;4934746;29;20040;-83
2023/07/10 00:30:48;;;;;;;17.27;9.70;;;23.20;91.60;;;24.15;66.97;100862.72;4928585;29;20130;-83
2023/07/10 00:33:17;;;;;;;12.43;9.30;;;23.10;91.80;;;24.13;66.84;100871.19;4930162;29;20036;-83
2023/07/10 00:35:45;;;;;;;13.73;9.40;;;23.10;91.80;;;24.12;66.93;100871.50;4926068;29;20082;-83
2023/07/10 00:38:23;;;;;;;15.25;9.80;;;23.10;92.00;;;24.11;67.22;100865.25;4933826;29;20044;-83
2023/07/10 00:40:50;;;;;;;10.93;9.27;;;23.10;92.10;;;24.09;67.39;100863.91;4938350;29;20051;-82
2023/07/10 00:43:32;;;;;;;12.55;9.43;;;23.10;92.40;;;24.08;67.10;100867.72;4935416;29;20042;-83
2023/07/10 00:46:14;;;;;;;;;;;23.10;92.10;;;24.05;67.19;100866.38;4943078;29;20079;-83
2023/07/10 00:48:48;;;;;;;18.88;9.65;;;23.10;92.20;;;24.05;67.04;100873.75;4937899;29;19954;-83
2023/07/10 00:51:24;;;;;;;16.35;8.95;;;23.10;92.00;;;24.05;66.83;100863.66;4937399;29;20508;-83
2023/07/10 00:53:53;;;;;;;12.18;8.95;;;23.10;91.80;;;24.03;67.21;100865.06;4927858;29;20120;-83
2023/07/10 00:56:21;;;;;;;12.73;9.13;;;23.10;92.20;;;24.00;67.31;100866.44;4933526;29;20485;-83
2023/07/10 00:58:50;;;;;;;14.55;9.30;;;23.00;92.20;;;23.97;67.34;100877.94;4930513;29;20569;-83
2023/07/10 01:01:23;;;;;;;17.02;9.93;;;23.00;92.00;;;23.94;67.35;100872.25;4949151;28;20050;-83
2023/07/10 01:03:53;;;;;;;13.95;8.98;;;23.00;92.20;;;23.90;67.43;100870.09;4946485;28;20142;-83
2023/07/10 01:06:26;;;;;;;14.48;8.35;;;23.00;92.40;;;23.90;67.06;100867.38;4933828;29;20051;-83
2023/07/10 01:09:00;;;;;;;13.68;9.05;;;23.00;91.90;;;23.92;67.32;100867.13;4932945;29;20075;-83
2023/07/10 01:11:28;;;;;;;12.77;8.20;;;22.90;92.20;;;23.93;67.03;100868.72;4934326;29;20048;-83
2023/07/10 01:13:57;;;;;;;11.65;7.95;;;23.00;92.20;;;23.92;67.21;100864.38;4939669;29;20048;-83
2023/07/10 01:16:27;;;;;;;11.00;8.30;;;23.00;92.20;;;23.93;67.13;100868.72;4930712;29;20032;-83
2023/07/10 01:18:55;;;;;;;12.38;7.18;;;23.00;92.10;;;23.91;67.42;100868.19;4931310;29;20059;-83
2023/07/10 01:21:27;;;;;;;10.48;7.25;;;22.90;92.30;;;23.88;67.15;100866.06;4940092;29;20614;-83
2023/07/10 01:23:57;;;;;;;13.18;7.07;;;22.90;92.50;;;23.87;66.96;100861.72;4934628;29;20039;-83
2023/07/10 01:26:26;;;;;;;17.45;7.45;;;22.90;92.10;;;23.86;67.05;100871.81;4936030;29;20078;-83
2023/07/10 01:28:57;;;;;;;14.20;6.75;;;22.90;92.10;;;23.83;67.05;100880.56;4936494;29;20059;-83
2023/07/10 01:31:27;;;;;;;10.52;7.00;;;22.80;92.00;;;23.81;67.16;100879.22;4933869;29;20397;-83
2023/07/10 01:33:58;;;;;;;10.50;6.10;;;22.80;92.20;;;23.79;66.81;100875.97;4933822;29;20111;-83
2023/07/10 01:36:31;;;;;;;10.32;7.13;;;22.80;92.00;;;23.73;67.32;100871.69;4944128;29;20143;-83
2023/07/10 01:39:28;;;;;;;11.98;6.88;;;22.80;92.00;;;23.72;66.87;100875.50;4945994;28;20044;-83
2023/07/10 01:41:55;;;;;;;10.25;6.68;;;22.80;91.90;;;23.75;66.83;100877.66;4923524;29;20143;-83
2023/07/10 01:44:26;;;;;;;12.48;7.10;;;22.80;92.00;;;23.74;66.75;100884.19;4923088;29;20050;-83
2023/07/10 01:46:55;;;;;;;14.07;6.32;;;22.80;91.80;;;23.73;67.00;100886.13;4932188;29;20528;-83
2023/07/10 01:49:26;;;;;;;12.18;7.95;;;22.80;92.20;;;23.69;67.33;100878.81;4933163;29;20074;-83
2023/07/10 01:51:58;;;;;;;19.52;13.85;;;22.70;92.40;;;23.66;67.35;100882.91;4933503;29;20445;-83
2023/07/10 01:54:26;;;;;;;27.67;20.55;;;22.70;92.40;;;23.67;67.13;100875.56;4936766;29;20044;-83
2023/07/10 01:56:54;;;;;;;30.00;21.70;;;22.70;92.40;;;23.64;67.39;100882.41;4930772;29;20039;-83
2023/07/10 01:59:21;;;;;;;30.88;24.13;;;22.70;92.50;;;23.62;67.46;100874.50;4947273;28;20102;-83
2023/07/10 02:01:49;;;;;;;34.13;23.85;;;22.70;92.60;;;23.63;67.39;100884.31;4932744;29;20054;-83
2023/07/10 02:04:17;;;;;;;30.63;23.38;;;22.70;92.70;;;23.62;67.75;100882.66;4929432;29;20075;-83
2023/07/10 02:06:44;;;;;;;33.35;24.67;;;22.70;93.00;;;23.61;67.49;100881.03;4922611;29;20420;-83
2023/07/10 02:09:13;;;;;;;36.30;27.23;;;22.70;92.70;;;23.60;67.28;100884.84;4931369;29;20577;-83
2023/07/10 02:11:40;;;;;;;33.38;26.73;;;22.60;92.50;;;23.60;67.54;100881.31;4940794;28;20138;-83
2023/07/10 02:14:09;;;;;;;41.75;27.90;;;22.60;92.70;;;23.58;67.47;100880.81;4985943;23;20185;-85
2023/07/10 02:16:36;;;;;;;38.55;29.35;;;22.60;92.60;;;23.58;67.44;100880.81;4974569;28;20523;-85
2023/07/10 02:19:05;;;;;;;40.95;28.42;;;22.60;92.40;;;23.55;67.23;100879.47;4981943;28;20129;-85
2023/07/10 02:21:32;;;;;;;38.67;28.95;;;22.60;92.60;;;23.55;67.35;100879.47;4953656;28;20511;-86
2023/07/10 02:24:00;;;;;;;38.15;27.83;;;22.60;92.80;;;23.56;67.30;100883.00;4954871;29;20083;-85
2023/07/10 02:26:29;;;;;;;43.95;30.83;;;22.60;92.60;;;23.53;67.25;100894.47;4965529;28;20124;-85
2023/07/10 02:28:58;;;;;;;40.97;28.75;;;22.60;92.70;;;23.50;67.46;100901.28;4959800;28;20047;-86
2023/07/10 02:31:26;;;;;;;40.78;28.52;;;22.60;92.80;;;23.44;67.65;100916.06;4967712;28;20039;-86
2023/07/10 02:33:54;;;;;;;36.55;26.05;;;22.50;92.80;;;23.37;67.74;100918.28;4955079;29;20573;-86
2023/07/10 02:36:22;;;;;;;33.58;23.27;;;22.50;92.90;;;23.37;67.51;100913.66;4953827;29;20053;-86
2023/07/10 02:38:49;;;;;;;29.83;21.50;;;22.50;92.80;;;23.38;67.79;100911.75;4951048;28;20459;-86
2023/07/10 02:41:16;;;;;;;28.58;21.73;;;22.50;93.00;;;23.38;67.45;100919.94;4959607;28;20125;-85
2023/07/10 02:43:45;;;;;;;24.38;18.27;;;22.50;92.70;;;23.35;67.45;100920.50;4950754;28;20139;-86
2023/07/10 02:46:12;;;;;;;27.05;18.95;;;22.40;92.60;;;23.35;67.20;100909.59;4963458;28;20139;-85
2023/07/10 02:48:40;;;;;;;30.90;18.55;;;22.40;92.60;;;23.35;67.20;100915.84;4947709;29;20079;-85
2023/07/10 02:51:08;;;;;;;25.90;18.67;;;22.40;92.40;;;23.35;67.30;100910.41;4946769;29;20653;-86
2023/07/10 02:53:35;;;;;;;27.58;18.52;;;22.40;92.60;;;23.33;67.31;100918.06;4947351;29;20067;-85
2023/07/10 02:56:02;;;;;;;26.90;19.00;;;22.40;92.50;;;23.35;67.04;100906.88;4949981;28;20560;-85
2023/07/10 02:58:29;;;;;;;22.20;17.52;;;22.40;92.40;;;23.35;66.94;100915.03;4954829;29;20039;-85
2023/07/10 03:01:00;;;;;;;28.25;18.35;;;22.40;92.30;;;23.34;67.24;100921.59;4946787;29;20071;-86
2023/07/10 03:03:28;;;;;;;26.67;18.50;;;22.40;92.60;;;23.33;67.21;100923.50;4954720;29;20098;-86
2023/07/10 03:05:56;;;;;;;25.30;17.63;;;22.30;92.60;;;23.30;67.20;100934.97;4954267;28;20698;-86
2023/07/10 03:08:24;;;;;;;25.10;18.42;;;22.40;92.60;;;23.26;67.25;100942.06;4949238;29;20483;-86
2023/07/10 03:11:00;;;;;;;24.23;17.27;;;22.40;92.60;;;23.23;67.11;100949.97;4947593;29;20046;-85
2023/07/10 03:13:28;;;;;;;26.98;18.65;;;22.30;92.40;;;23.20;67.55;100945.94;4954528;28;20496;-86
2023/07/10 03:16:05;;;;;;;23.75;18.17;;;22.30;92.80;;;23.18;67.29;100942.69;4903785;28;20850;-85
2023/07/10 03:18:35;;;;;;;23.95;17.15;;;22.30;92.60;;;23.19;67.37;100943.50;4962666;28;20075;-85
2023/07/10 03:21:03;;;;;;;25.45;17.85;;;22.30;92.60;;;23.18;67.43;100945.41;4955657;28;20141;-86
2023/07/10 03:23:30;;;;;;;24.55;16.75;;;22.30;92.80;;;23.16;67.24;100954.94;4952050;28;20130;-86
2023/07/10 03:25:58;;;;;;;22.25;16.52;;;22.20;92.50;;;23.11;67.42;100950.34;4960251;28;20082;-86
2023/07/10 03:28:25;;;;;;;25.52;16.98;;;22.20;92.40;;;23.12;67.51;100950.06;4965221;28;20070;-86
2023/07/10 03:30:52;;;;;;;24.40;16.90;;;22.20;92.60;;;23.12;67.22;100941.88;4953414;28;20436;-86
2023/07/10 03:33:21;;;;;;;25.50;16.33;;;22.20;92.40;;;23.15;67.56;100954.13;4950964;29;20760;-85
2023/07/10 03:35:57;;;;;;;23.67;17.02;;;22.20;92.70;;;23.14;67.50;100941.63;4950920;28;20077;-86
2023/07/10 03:38:25;;;;;;;26.85;16.67;;;22.20;92.80;;;23.12;67.52;100938.34;4960453;28;20039;-85
2023/07/10 03:40:53;;;;;;;25.02;16.10;;;22.20;92.80;;;23.10;67.62;100922.31;4956152;28;20189;-85
2023/07/10 03:43:20;;;;;;;23.13;16.65;;;22.20;92.90;;;23.10;67.94;100913.34;4954769;28;20122;-86
2023/07/10 03:45:47;;;;;;;25.85;17.45;;;22.20;93.20;;;23.09;67.95;100917.97;4954205;28;20134;-85
2023/07/10 03:48:15;;;;;;;27.15;18.48;;;22.20;93.20;;;23.07;67.93;100931.03;4953950;29;20237;-86
2023/07/10 03:50:44;;;;;;;31.50;19.50;;;22.10;93.10;;;23.05;67.82;100938.69;4955338;28;20139;-86
2023/07/10 03:53:11;;;;;;;29.10;18.73;;;22.10;93.00;;;23.07;67.99;100936.47;4956993;28;20130;-85
2023/07/10 03:55:48;;;;;;;27.15;18.75;;;22.10;93.40;;;23.07;68.19;100931.03;4959149;28;20126;-85
2023/07/10 03:58:21;;;;;;;34.05;20.35;;;22.10;93.40;;;23.02;68.25;100935.72;4969984;28;20078;-86
2023/07/10 04:00:49;;;;;;;30.42;20.77;;;22.10;93.60;;;22.98;68.65;100932.72;4943931;29;20510;-85
2023/07/10 04:03:17;;;;;;;30.52;19.15;;;22.10;93.70;;;23.00;68.43;100932.47;4952699;29;20504;-85
2023/07/10 04:05:49;;;;;;;28.30;20.02;;;22.10;93.70;;;22.99;68.24;100934.38;4957353;28;20065;-85
2023/07/10 04:08:17;;;;;;;28.38;19.33;;;22.10;93.60;;;22.99;68.17;100936.28;4942535;28;20417;-85
2023/07/10 04:10:50;;;;;;;28.38;18.83;;;22.10;93.70;;;22.96;68.43;100942.28;4953058;28;20163;-86
2023/07/10 04:13:18;;;;;;;29.27;17.77;;;22.00;93.80;;;22.92;68.26;100950.19;4941708;29;20069;-86
2023/07/10 04:16:02;;;;;;;23.20;16.05;;;22.00;93.50;;;22.92;68.20;100938.50;4948834;28;20040;-85
2023/07/10 04:18:32;;;;;;;21.55;16.40;;;22.00;93.40;;;22.93;68.18;100953.72;4939499;29;20184;-86
2023/07/10 04:21:03;;;;;;;26.40;16.88;;;22.00;93.40;;;22.90;68.43;100957.03;4948564;28;20122;-86
2023/07/10 04:23:31;;;;;;;23.95;16.83;;;22.00;93.40;;;22.91;68.26;100964.09;4945904;28;20118;-86
2023/07/10 04:25:58;;;;;;;20.02;14.68;;;22.00;93.60;;;22.91;68.27;100962.19;4962368;28;20042;-86
2023/07/10 04:28:26;;;;;;;24.67;16.35;;;22.00;93.50;;;22.92;68.50;100961.06;4938461;28;20389;-86
2023/07/10 04:30:54;;;;;;;25.05;15.77;;;22.00;93.60;;;22.90;68.38;100960.56;4949585;28;20576;-86
2023/07/10 04:33:22;;;;;;;22.05;15.70;;;22.00;93.60;;;22.90;68.59;100966.00;4965844;28;20050;-86
2023/07/10 04:35:55;;;;;;;26.30;16.08;;;22.00;93.80;;;22.88;68.47;100954.53;4952266;28;20051;-86
2023/07/10 04:38:27;;;;;;;24.70;16.10;;;22.00;93.60;;;22.89;68.61;100961.66;4952645;28;20515;-86
2023/07/10 04:40:56;;;;;;;20.27;14.68;;;22.00;93.60;;;22.90;68.33;100957.03;4934299;29;20074;-86
2023/07/10 04:43:25;;;;;;;23.05;14.48;;;22.00;93.60;;;22.87;68.47;100961.88;4939585;28;20130;-86
2023/07/10 04:45:54;;;;;;;26.50;17.73;;;22.00;93.80;;;22.87;68.44;100977.41;4952700;29;20039;-86
2023/07/10 04:48:23;;;;;;;26.52;18.02;;;22.00;93.80;;;22.84;68.80;100977.97;4953083;28;20051;-86
2023/07/10 04:50:52;;;;;;;23.85;17.52;;;22.00;94.10;;;22.81;68.90;100971.19;4940295;29;20464;-86
2023/07/10 04:53:20;;;;;;;26.35;19.00;;;22.00;94.10;;;22.81;68.89;100971.19;4952333;28;20031;-86
2023/07/10 04:55:51;;;;;;;25.75;17.73;;;22.00;93.80;;;22.82;68.76;100972.00;4969335;28;20070;-86
2023/07/10 04:58:19;;;;;;;26.77;18.70;;;22.00;93.90;;;22.78;68.78;100981.81;4960928;28;20437;-85
2023/07/10 05:00:53;;;;;;;27.33;18.67;;;22.00;93.80;;;22.76;68.95;100976.66;4952714;29;20097;-86
2023/07/10 05:03:20;;;;;;;25.50;17.95;;;21.90;94.10;;;22.75;68.73;100980.47;4976533;28;20050;-86
2023/07/10 05:05:53;;;;;;;24.25;17.27;;;21.90;93.90;;;22.77;68.84;100977.47;4960610;28;20134;-86
2023/07/10 05:08:21;;;;;;;25.02;17.48;;;21.90;94.10;;;22.78;68.91;100985.31;4952880;29;20047;-86
2023/07/10 05:10:51;;;;;;;28.55;17.27;;;21.90;94.10;;;22.72;68.90;100991.09;4940871;29;20066;-85
2023/07/10 05:13:19;;;;;;;27.58;16.88;;;21.90;94.20;;;22.72;68.89;100991.09;4944454;29;20053;-85
2023/07/10 05:15:47;;;;;;;22.60;16.35;;;21.90;94.20;;;22.66;69.31;100994.94;4956900;28;20118;-86
2023/07/10 05:18:15;;;;;;;26.05;16.25;;;21.80;94.30;;;22.63;69.02;100994.38;4950125;29;20095;-86
2023/07/10 05:20:46;;;;;;;23.85;17.30;;;21.90;94.40;;;22.64;69.17;100997.91;4948778;29;20047;-86
2023/07/10 05:23:14;;;;;;;;;;;21.80;94.20;;;22.58;69.27;101004.47;4952171;28;20558;-86
2023/07/10 05:25:42;;;;;;;21.08;15.68;;;21.80;94.40;;;22.52;69.30;101011.03;4949888;28;19926;-85
2023/07/10 05:28:10;;;;;;;20.83;15.02;;;21.70;94.40;;;22.48;69.60;101016.19;4943934;28;20043;-86
2023/07/10 05:30:38;;;;;;;23.95;15.15;;;21.70;94.60;;;22.53;69.78;101008.00;4952367;29;20134;-86
2023/07/10 05:33:05;;;;;;;21.23;14.10;;;21.70;95.00;;;22.55;69.49;101008.56;4952262;29;20391;-86
2023/07/10 05:35:32;;;;;;;20.05;11.85;;;21.80;94.60;;;22.49;68.74;101020.53;4962878;28;20423;-86
2023/07/10 05:38:00;;;;;;;18.17;12.00;;;21.70;94.00;;;22.50;68.63;101019.47;4945611;28;20142;-86
2023/07/10 05:40:27;;;;;;;18.20;11.50;;;21.70;94.10;;;22.52;68.35;101022.72;4953505;28;20042;-85
2023/07/10 05:42:54;;;;;;;13.02;10.70;;;21.70;93.70;;;22.49;68.01;101025.16;4954857;28;20076;-86
2023/07/10 05:45:23;;;;;;;18.15;10.07;;;21.60;93.20;;;22.42;68.05;101022.75;4953769;29;20086;-86
2023/07/10 05:47:50;;;;;;;12.95;9.00;;;21.60;93.30;;;22.47;67.86;101019.19;4969143;28;20051;-86
2023/07/10 05:50:17;;;;;;;14.18;8.52;;;21.70;93.40;;;22.50;67.95;101027.63;4960253;28;20077;-86
2023/07/10 05:52:45;;;;;;;14.50;8.18;;;21.60;93.20;;;22.50;67.80;101033.06;4968028;28;20153;-86
2023/07/10 05:55:12;;;;;;;13.05;7.30;;;21.60;92.90;;;22.53;67.01;101031.66;4954227;28;20082;-86
2023/07/10 05:57:39;;;;;;;10.75;6.57;;;21.60;92.40;;;22.53;67.19;101035.19;4956545;29;20065;-86
2023/07/10 06:00:08;;;;;;;8.75;6.00;;;21.60;92.80;;;22.52;67.38;101047.19;4959161;28;20126;-85
2023/07/10 06:02:37;;;;;;;12.85;6.45;;;21.60;92.80;;;22.52;67.19;101039.03;4961520;28;20043;-86
2023/07/10 06:05:05;;;;;;;10.43;6.32;;;21.60;92.70;;;22.51;67.53;101042.84;4952768;29;20094;-85
2023/07/10 06:07:32;;;;;;;16.58;7.28;;;21.60;92.80;;;22.52;67.58;101039.03;4953197;28;20066;-85
2023/07/10 06:10:00;;;;;;;9.13;6.53;;;21.60;93.10;;;22.52;67.75;101047.19;4938780;28;20135;-85
2023/07/10 06:12:27;;;;;;;10.70;6.13;;;21.60;93.30;;;22.53;67.74;101048.78;4954611;29;20075;-86
2023/07/10 06:14:54;;;;;;;8.73;5.85;;;21.60;93.20;;;22.53;68.00;101054.22;4951756;29;20497;-85
2023/07/10 06:17:21;;;;;;;12.68;6.72;;;21.70;93.60;;;22.55;68.13;101059.41;4950505;29;20448;-86
2023/07/10 06:19:50;;;;;;;13.98;6.75;;;21.70;93.60;;;22.55;68.04;101060.22;4957731;28;20047;-85
2023/07/10 06:22:17;;;;;;;12.70;7.03;;;21.70;93.40;;;22.55;68.34;101060.22;4961873;28;20125;-86
2023/07/10 06:24:45;;;;;;;10.40;7.03;;;21.70;93.80;;;22.56;68.44;101056.41;4959130;28;20085;-85
2023/07/10 06:27:12;;;;;;;12.43;8.02;;;21.70;93.70;;;22.54;68.01;101046.88;4956228;29;20118;-85
2023/07/10 06:29:40;;;;;;;15.52;7.78;;;21.70;93.20;;;22.54;67.97;101046.88;4955157;28;20098;-86
2023/07/10 06:32:09;;;;;;;13.18;7.50;;;21.70;93.10;;;22.55;68.18;101052.06;4955924;28;20874;-86
2023/07/10 06:34:36;;;;;;;13.13;7.40;;;21.70;93.30;;;22.56;67.97;101047.44;4951805;29;20051;-86
2023/07/10 06:37:06;;;;;;;15.02;7.28;;;21.70;93.30;;;22.57;68.20;101057.22;4955169;29;20131;-86
2023/07/10 06:39:33;;;;;;;15.15;7.55;;;21.70;93.50;;;22.56;67.70;101047.44;4949617;28;20887;-85
2023/07/10 06:42:00;;;;;;;15.75;7.35;;;21.70;93.20;;;22.55;67.23;101046.63;4968734;28;20046;-86
2023/07/10 06:44:30;;;;;;;11.02;6.45;;;21.70;92.60;;;22.56;67.87;101061.03;4951927;29;20047;-86
2023/07/10 06:46:58;;;;;;;11.57;7.10;;;21.80;93.10;;;22.54;67.39;101064.00;4964755;28;20078;-86
2023/07/10 06:49:25;;;;;;;14.07;7.25;;;21.80;92.40;;;22.57;67.26;101059.94;4957386;28;20058;-86
2023/07/10 06:51:52;;;;;;;12.18;6.55;;;21.80;92.30;;;22.61;67.69;101064.56;4949899;29;20083;-85
2023/07/10 06:54:21;;;;;;;14.23;7.63;;;21.90;92.60;;;22.60;67.50;101067.56;4953817;29;20496;-86
2023/07/10 06:56:48;;;;;;;12.57;7.88;;;21.90;92.60;;;22.61;68.18;101074.63;4961908;28;20114;-85
2023/07/10 06:59:16;;;;;;;17.95;8.98;;;21.90;93.00;;;22.59;68.33;101072.19;4955936;28;20134;-86
2023/07/10 07:01:43;;;;;;;18.52;11.88;;;21.90;93.20;;;22.59;68.53;101074.91;4954046;29;20496;-86
2023/07/10 07:04:11;;;;;;;20.15;13.85;;;21.80;93.50;;;22.56;68.82;101075.44;4951977;29;20070;-86
2023/07/10 07:06:38;;;;;;;22.13;14.63;;;21.80;93.60;;;22.56;68.98;101080.06;4947493;28;20068;-86
2023/07/10 07:09:06;;;;;;;21.05;14.00;;;21.80;94.00;;;22.50;69.37;101079.28;4954759;29;20039;-86
2023/07/10 07:11:34;;;;;;;20.98;13.20;;;21.80;94.00;;;22.51;69.16;101080.09;4954515;29;20086;-86
2023/07/10 07:14:02;;;;;;;20.27;11.93;;;21.80;93.90;;;22.53;68.79;101081.41;4957692;28;20448;-85
2023/07/10 07:16:29;;;;;;;16.67;10.27;;;21.90;93.80;;;22.61;68.32;101080.06;4961947;28;20039;-85
2023/07/10 07:18:56;;;;;;;17.05;9.50;;;21.90;92.80;;;22.66;67.71;101082.75;4955516;28;20075;-86
2023/07/10 07:21:23;;;;;;;13.43;8.90;;;22.00;92.30;;;22.73;68.15;101090.59;4951421;28;20146;-86
2023/07/10 07:23:51;;;;;;;25.30;9.45;;;22.10;92.80;;;22.81;67.80;101093.56;4961050;28;20054;-85
2023/07/10 07:26:18;;;;;;;15.18;9.57;;;22.20;92.40;;;22.84;68.24;101097.66;4965449;28;20082;-86
2023/07/10 07:28:48;;;;;;;16.95;9.48;;;22.20;92.60;;;22.86;69.53;101093.56;4958495;28;20485;-86
2023/07/10 07:31:15;;;;;;;19.13;9.88;;;22.30;93.60;;;22.90;68.35;101091.13;4956033;28;20071;-85
2023/07/10 07:33:43;;;;;;;14.77;9.77;;;22.40;92.30;;;22.96;67.67;101087.28;4964164;28;20042;-86
2023/07/10 07:36:10;;;;;;;20.30;9.73;;;22.40;91.40;;;22.95;66.39;101099.28;4956632;28;20051;-86
2023/07/10 07:38:37;;;;;;;16.98;9.10;;;22.50;90.00;;;23.06;66.76;101091.88;4949578;28;20078;-86
2023/07/10 07:41:06;;;;;;;16.80;8.52;;;22.60;90.40;;;23.08;64.45;101095.97;4946019;29;20047;-85
2023/07/10 07:43:34;;;;;;;15.88;8.18;;;22.70;88.10;;;23.20;64.75;101102.97;4944845;28;20047;-86
2023/07/10 07:46:03;;;;;;;13.20;7.32;;;22.80;88.00;;;23.23;65.47;101100.50;4953134;29;20040;-86
2023/07/10 07:48:30;;;;;;;18.30;7.40;;;22.80;88.30;;;23.22;63.88;101098.03;4961931;28;20043;-86
2023/07/10 07:51:00;;;;;;;16.98;6.78;;;22.90;86.50;;;23.23;63.94;101097.78;4954146;28;20416;-86
2023/07/10 07:53:28;;;;;;;15.10;6.88;;;22.90;87.00;;;23.18;63.09;101095.09;4950081;28;20098;-86
2023/07/10 07:55:55;;;;;;;15.98;6.68;;;22.80;85.80;;;23.19;63.59;101090.47;4974065;28;20039;-86
2023/07/10 07:58:23;;;;;;;11.73;5.80;;;22.80;86.70;;;23.30;63.71;101092.03;4960706;28;20459;-86
2023/07/10 08:00:50;;;;;;;13.13;5.05;;;22.90;86.30;;;23.39;61.35;101091.16;4955369;28;20069;-86
2023/07/10 08:03:19;;;;;;;11.38;5.78;;;23.10;83.30;;;23.53;61.64;101098.69;4957943;28;20130;-86
2023/07/10 08:05:46;;;;;;;14.00;5.30;;;23.30;83.80;;;23.67;61.88;101101.59;4965054;28;20129;-85
2023/07/10 08:08:14;;;;;;;10.73;4.93;;;23.50;84.10;;;23.72;61.52;101101.56;4959866;28;20134;-85
2023/07/10 08:10:46;;;;;;;11.10;4.22;;;23.50;83.10;;;23.61;60.75;101098.09;4960569;28;20127;-86
2023/07/10 08:13:15;;;;;;;14.25;4.68;;;23.50;82.10;;;23.58;60.49;101102.19;4950991;28;20042;-86
2023/07/10 08:15:45;;;;;;;10.73;4.63;;;23.40;81.90;;;23.63;59.41;101102.19;4989656;23;20111;-85
2023/07/10 08:18:12;;;;;;;9.05;4.60;;;23.50;80.80;;;23.79;59.49;101093.91;4971529;28;20693;-85
2023/07/10 08:20:41;;;;;;;11.20;4.97;;;23.60;80.60;;;23.92;59.39;101096.00;4976971;28;20069;-85
2023/07/10 08:23:09;;;;;;;11.07;4.22;;;23.80;80.60;;;23.96;56.84;101090.75;4966810;28;20751;-83
2023/07/10 08:25:36;;;;;;;11.98;4.55;;;23.80;77.20;;;24.07;59.75;101095.84;4974897;28;20053;-84
2023/07/10 08:28:03;;;;;;;11.57;4.28;;;23.90;80.20;;;24.11;59.23;101102.38;4976245;28;20061;-84
2023/07/10 08:30:31;;;;;;;8.43;3.95;;;24.00;79.70;;;24.17;59.24;101097.66;4970095;28;20039;-84
2023/07/10 08:32:58;;;;;;;9.30;4.20;;;24.10;79.70;;;24.12;57.70;101101.25;4984259;28;20058;-83
2023/07/10 08:35:26;;;;;;;13.02;3.80;;;24.10;77.90;;;24.10;58.08;101100.72;4972692;28;20055;-84
2023/07/10 08:37:54;;;;;;;9.38;3.90;;;24.10;78.30;;;24.26;57.91;101090.50;4968523;28;20034;-84
2023/07/10 08:40:31;;;;;;;9.82;4.55;;;24.20;78.10;;;24.38;58.27;101093.66;4985880;28;20137;-84
2023/07/10 08:43:02;;;;;;;8.98;3.30;;;24.30;78.90;;;24.37;56.99;101102.16;4962935;28;20168;-84
2023/07/10 08:45:34;;;;;;;;;;;24.30;76.80;;;24.40;59.81;101094.22;4971908;28;20062;-84
2023/07/10 08:48:18;;;;;;;8.93;3.15;;;24.40;79.80;;;24.46;58.09;101092.25;4969358;28;19922;-84
2023/07/10 08:50:48;;;;;;;8.88;3.00;;;24.50;77.80;;;24.51;56.86;101094.09;4977757;28;20121;-84
2023/07/10 08:53:25;;;;;;;10.23;3.53;;;24.50;76.60;;;24.52;56.51;101087.53;4969267;28;20042;-84
2023/07/10 08:56:04;;;;;;;9.13;3.53;;;24.50;76.00;;;24.49;55.74;101085.38;4962355;28;20051;-84
2023/07/10 08:58:35;;;;;;;8.05;3.53;;;24.50;75.20;;;24.52;56.94;101085.63;4971065;28;20070;-84
2023/07/10 09:01:11;;;;;;;7.38;3.42;;;24.50;76.90;;;24.54;58.51;101091.59;4981879;28;20100;-84
2023/07/10 09:03:45;;;;;;;8.25;4.03;;;24.50;78.00;;;24.59;59.54;101088.00;4969503;28;20130;-84
2023/07/10 09:06:36;;;;;;;12.15;4.00;;;24.60;78.70;;;24.57;57.09;101076.56;4975105;28;20118;-84
2023/07/10 09:09:30;;;;;;;7.07;3.67;;;24.70;76.30;;;24.65;58.07;101078.66;4968049;28;20039;-84
2023/07/10 09:12:01;;;;;;;7.55;3.08;;;24.70;77.60;;;24.61;56.53;101075.69;4980830;28;20100;-84
2023/07/10 09:14:42;;;;;;;7.53;2.88;;;24.80;75.80;;;24.61;56.77;101086.59;4974257;28;20051;-83
2023/07/10 09:17:25;;;;;;;8.68;3.10;;;24.70;75.50;;;24.61;54.04;101088.53;4974957;28;20071;-83
2023/07/10 09:19:57;;;;;;;10.98;3.13;;;24.70;72.90;;;24.49;54.48;101079.91;4993219;28;21931;-84
2023/07/10 09:22:25;;;;;;;6.22;3.40;;;24.50;73.00;;;24.44;54.73;101088.16;4969906;28;20050;-84
2023/07/10 09:24:55;;;;;;;9.23;3.10;;;24.50;73.50;;;24.27;55.28;101083.94;4983000;28;20034;-84
2023/07/10 09:27:22;;;;;;;11.77;2.73;;;24.30;74.30;;;24.40;53.25;101085.19;4971921;28;20423;-83
2023/07/10 09:29:53;;;;;;;7.22;2.95;;;24.40;72.30;;;24.50;56.23;101089.72;4973425;28;20376;-84
2023/07/10 09:32:21;;;;;;;6.15;2.67;;;24.50;75.20;;;24.57;54.78;101087.47;4971877;28;20035;-84
2023/07/10 09:34:53;;;;;;;7.10;2.53;;;24.70;73.40;;;24.61;52.57;101078.44;4949854;28;20062;-84
2023/07/10 09:37:24;;;;;;;7.72;2.85;;;24.70;71.00;;;24.62;56.02;101079.25;4982062;28;20042;-84
2023/07/10 09:39:53;;;;;;;12.35;2.90;;;24.80;74.50;;;24.66;54.81;101077.56;4968959;28;20047;-84
2023/07/10 09:42:31;;;;;;;6.88;2.40;;;24.80;72.50;;;24.69;52.95;101076.16;4979066;28;20146;-84
2023/07/10 09:45:00;;;;;;;9.20;2.42;;;24.90;71.20;;;24.73;54.17;101079.94;4985017;28;20069;-85
2023/07/10 09:47:40;;;;;;;8.48;2.83;;;24.90;71.50;;;24.75;52.39;101088.66;4971478;28;20058;-85
2023/07/10 09:50:15;;;;;;;4.13;2.03;;;25.00;70.30;;;24.76;51.89;101085.63;4977330;28;20069;-85
2023/07/10 09:52:43;;;;;;;6.03;2.10;;;25.00;69.70;;;24.80;53.83;101088.59;4983635;28;20145;-84
2023/07/10 09:55:17;;;;;;;6.03;2.10;;;25.00;71.50;;;24.84;51.05;101079.53;4980492;28;20049;-84
2023/07/10 09:57:54;;;;;;;6.97;2.30;;;25.00;68.70;;;24.78;52.23;101071.69;4990575;28;20418;-84
2023/07/10 10:00:22;;;;;;;9.27;2.17;;;25.00;69.30;;;24.70;51.87;101080.53;4986627;28;20106;-83
2023/07/10 10:02:57;;;;;;;8.85;2.53;;;24.80;69.00;;;24.66;52.63;101072.09;4985285;28;20043;-83
2023/07/10 10:05:25;;;;;;;5.13;2.00;;;24.80;70.10;;;24.69;52.11;101078.88;4978919;28;20054;-82
2023/07/10 10:08:01;;;;;;;9.40;2.05;;;24.80;70.00;;;24.63;51.19;101080.84;4984248;28;20566;-82
2023/07/10 10:10:32;;;;;;;4.97;1.73;;;24.70;68.80;;;24.68;49.90;101075.34;4980903;28;20115;-81
2023/07/10 10:13:07;;;;;;;5.75;1.90;;;24.70;67.20;;;24.77;50.58;101076.31;4984347;28;20497;-81
2023/07/10 10:15:46;;;;;;;6.57;2.20;;;24.90;67.70;;;24.81;51.21;101076.56;4985780;28;20038;-81